Airfield :







YOU CAN JOIN US ON...

 
LOGIN :

Register | Disclaimer

   EN    FR    IT 

 









Legend :    VFR   Marginal VFR   IFR   Intensive IFR   Very Intensive IFR
Visi :
Ceiling :
>= 8 km
>= 3000ft
5 to 8 km
1000 to 3000 ft
1500m to 5 km
500 to 1000 ft
800 to 1500m
200 to 500 ft
< 800m
< 200 ft
Symbols :   Thunderstorms  Fog  Heavy snow  Heavy precipitations  Wind > 20 kt






- Airport Elevation : 21 ft
- IATA code : YVM


CYVM - Qikiqtarjuac

CURRENT METAR :
  • 221300Z 19009KT 15SM OVC120 M27/M30 A2941 RMK AC8 SNW COV/MUCH LOOSE SLP964

EXPIRED METARs :
  • 221200Z AUTO VRB02KT 9SM BKN150 OVC180 M27/M32 A2941 RMK SLP964
  • 221100Z AUTO 20008KT 9SM CLR M26/M31 A2942 RMK SLP967

TAF TAF CYVM
Valid from the 22 at 13:00 until the 23 at 01:00 UTC


221240Z 2213/2301 20005KT P6SM BKN150
BECMG 2215/2217 02005KT
FM221700 02005KT P6SM FEW020 BKN100
TEMPO 2217/2221 6SM -SN SCT020 OVC090
FM222100 02005KT P6SM -SN SCT020 OVC090
TEMPO 2221/2301 3SM -SN RMK FCST BASED ON AUTO OBS. NXT FCST BY 221900Z
CZEG FIR / North America



MET'MAP, your aeronautical weather chart ! - Copyright ORBIFLY December 2007 - Disclaimer

ORBIFLY MET'MAP TEAM :

Programming & Development : Alexandra Zaïnal
Concept & original design : Baudouin d'Aumeries
Assistance for programming : Marc-Olivier Méhu
Technical & hardware support : Manuel Goepfert

Contact : metmap@orbifly.com




SOURCES & CREDITS :

   NOAA